createdAt,value
2023-05-15T00:00:10.637Z,69.52
2023-05-15T00:02:12.983Z,69.65
2023-05-15T00:04:14.514Z,69.83
2023-05-15T00:06:16.100Z,69.93
2023-05-15T00:08:17.583Z,69.85
2023-05-15T00:10:19.081Z,70.35
2023-05-15T00:12:20.879Z,70.43
2023-05-15T00:14:22.567Z,70.08
2023-05-15T00:16:24.590Z,70.30
2023-05-15T00:18:26.133Z,70.20
2023-05-15T00:20:27.623Z,70.06
2023-05-15T00:22:29.097Z,69.85
2023-05-15T00:24:30.612Z,70.06
2023-05-15T00:26:32.072Z,70.29
2023-05-15T00:28:33.574Z,70.39
2023-05-15T00:30:35.064Z,70.00
2023-05-15T00:32:36.556Z,70.37
2023-05-15T00:34:38.073Z,70.49
2023-05-15T00:36:39.603Z,70.30
2023-05-15T00:38:41.164Z,70.83
2023-05-15T00:40:44.047Z,70.88
2023-05-15T00:42:46.857Z,70.85
2023-05-15T00:44:48.812Z,70.81
2023-05-15T00:46:53.183Z,71.12
2023-05-15T00:48:56.262Z,71.89
2023-05-15T00:50:58.003Z,72.19
2023-05-15T00:53:00.849Z,72.12
2023-05-15T00:55:02.440Z,72.10
2023-05-15T00:57:06.523Z,71.74
2023-05-15T00:59:08.652Z,71.41
2023-05-15T01:01:11.105Z,71.04
2023-05-15T01:03:12.778Z,71.21
2023-05-15T01:05:14.432Z,70.89
2023-05-15T01:07:16.105Z,70.85
2023-05-15T01:09:19.214Z,71.08
2023-05-15T01:11:24.409Z,70.79
2023-05-15T01:13:25.933Z,70.98
2023-05-15T01:15:27.435Z,70.78
2023-05-15T01:17:29.722Z,70.84
2023-05-15T01:19:31.514Z,71.00
2023-05-15T01:21:38.822Z,71.01
2023-05-15T01:23:58.459Z,71.48
2023-05-15T01:26:33.673Z,71.29
2023-05-15T01:28:42.627Z,70.83
2023-05-15T01:30:45.591Z,70.77
2023-05-15T01:32:55.730Z,70.79
2023-05-15T01:35:11.830Z,71.14
2023-05-15T01:37:17.238Z,70.76
2023-05-15T01:39:23.190Z,70.35
2023-05-15T01:41:31.427Z,70.47
2023-05-15T01:43:35.837Z,70.37
2023-05-15T01:45:39.857Z,70.77
2023-05-15T01:47:46.300Z,70.87
2023-05-15T01:49:50.996Z,71.00
2023-05-15T01:51:59.545Z,70.92
2023-05-15T01:54:03.552Z,70.82
2023-05-15T01:56:08.106Z,70.94
2023-05-15T01:58:10.090Z,71.50
2023-05-15T02:00:12.667Z,71.60
2023-05-15T02:02:15.346Z,71.91
2023-05-15T02:04:18.893Z,71.64
2023-05-15T02:06:21.640Z,71.32
2023-05-15T02:08:25.714Z,70.92
2023-05-15T02:10:28.538Z,71.32
2023-05-15T02:12:31.823Z,71.23
2023-05-15T02:14:33.679Z,71.41
2023-05-15T02:16:35.776Z,71.20
2023-05-15T02:18:38.169Z,71.03
2023-05-15T02:20:39.716Z,70.85
2023-05-15T02:22:41.186Z,70.83
2023-05-15T02:24:42.681Z,70.62
2023-05-15T02:26:47.059Z,70.77
2023-05-15T02:29:18.701Z,70.96
2023-05-15T02:31:50.939Z,71.25
2023-05-15T02:34:06.091Z,71.28
2023-05-15T02:36:17.535Z,71.71
2023-05-15T02:38:31.290Z,71.87
2023-05-15T02:40:36.353Z,71.26
2023-05-15T02:42:38.942Z,71.00
2023-05-15T02:44:42.571Z,71.35
2023-05-15T02:46:44.553Z,70.99
2023-05-15T02:48:47.213Z,70.95
2023-05-15T02:50:48.809Z,70.73
2023-05-15T02:52:50.268Z,71.23
2023-05-15T02:54:51.913Z,71.81
2023-05-15T02:56:53.442Z,71.53
2023-05-15T02:58:55.138Z,71.75
2023-05-15T03:00:57.179Z,71.53
2023-05-15T03:02:59.079Z,71.24
2023-05-15T03:05:01.076Z,71.13
2023-05-15T03:07:03.009Z,71.40
2023-05-15T03:09:06.549Z,70.84
2023-05-15T03:11:08.398Z,71.19
2023-05-15T03:13:09.927Z,71.10
2023-05-15T03:15:11.513Z,71.42
2023-05-15T03:17:13.141Z,71.80
2023-05-15T03:19:14.938Z,71.92
2023-05-15T03:21:17.983Z,71.99
2023-05-15T03:23:19.833Z,72.07
2023-05-15T03:25:23.098Z,72.04
2023-05-15T03:27:25.030Z,71.59
2023-05-15T03:29:26.568Z,71.75
2023-05-15T03:31:28.283Z,71.07
2023-05-15T03:33:30.149Z,71.38
2023-05-15T03:35:32.542Z,71.10
2023-05-15T03:37:34.262Z,71.40
2023-05-15T03:39:36.147Z,71.55
2023-05-15T03:41:37.984Z,71.86
2023-05-15T03:43:39.621Z,71.84
2023-05-15T03:45:41.181Z,72.17
2023-05-15T03:47:43.032Z,72.38
2023-05-15T03:49:47.217Z,72.40
2023-05-15T03:51:48.988Z,71.44
2023-05-15T03:53:51.057Z,70.91
2023-05-15T03:55:52.711Z,71.06
2023-05-15T03:57:55.099Z,70.69
2023-05-15T03:59:57.120Z,70.92
2023-05-15T04:02:04.995Z,71.57
2023-05-15T04:04:07.475Z,76.64
2023-05-15T04:06:09.100Z,78.39
2023-05-15T04:08:12.614Z,77.50
2023-05-15T04:10:14.283Z,79.21
2023-05-15T04:12:16.163Z,83.31
2023-05-15T04:14:17.746Z,86.38
2023-05-15T04:16:19.426Z,88.92
2023-05-15T04:18:21.067Z,90.58
2023-05-15T04:20:24.734Z,91.64
2023-05-15T04:22:26.312Z,93.04
2023-05-15T04:24:28.078Z,93.60
2023-05-15T04:26:29.873Z,94.74
2023-05-15T04:28:32.492Z,95.44
2023-05-15T04:30:34.089Z,95.97
2023-05-15T04:32:36.241Z,96.43
2023-05-15T04:34:38.094Z,97.25
2023-05-15T04:36:40.852Z,97.45
2023-05-15T04:38:44.517Z,97.89
2023-05-15T04:40:47.229Z,98.26
2023-05-15T04:42:48.799Z,98.65
2023-05-15T04:44:51.223Z,99.11
2023-05-15T04:46:52.786Z,99.28
2023-05-15T04:48:54.532Z,99.50
2023-05-15T04:50:56.384Z,99.29
2023-05-15T04:52:58.067Z,99.54
2023-05-15T04:55:00.049Z,99.51
2023-05-15T04:57:02.483Z,99.49
2023-05-15T04:59:04.201Z,99.42
2023-05-15T05:01:05.862Z,99.30
2023-05-15T05:03:07.980Z,99.13
2023-05-15T05:05:10.222Z,98.94
2023-05-15T05:07:12.083Z,98.79
2023-05-15T05:09:13.741Z,98.57
2023-05-15T05:11:15.295Z,98.43
2023-05-15T05:13:16.913Z,98.17
2023-05-15T05:15:18.639Z,98.17
2023-05-15T05:17:20.734Z,98.00
2023-05-15T05:19:22.540Z,97.58
2023-05-15T05:21:24.104Z,97.63
2023-05-15T05:23:26.096Z,97.79
2023-05-15T05:25:27.833Z,97.48
2023-05-15T05:27:29.465Z,97.42
2023-05-15T05:29:31.514Z,97.16
2023-05-15T05:31:33.597Z,97.02
2023-05-15T05:33:35.898Z,96.71
2023-05-15T05:35:38.032Z,96.49
2023-05-15T05:37:41.125Z,96.53
2023-05-15T05:39:43.122Z,96.83
2023-05-15T05:41:45.378Z,96.97
2023-05-15T05:43:47.239Z,96.23
2023-05-15T05:45:49.025Z,96.23
2023-05-15T05:47:51.254Z,95.49
2023-05-15T05:49:52.862Z,95.42
2023-05-15T05:51:54.424Z,95.37
2023-05-15T05:53:56.324Z,92.28
2023-05-15T05:55:58.322Z,90.83
2023-05-15T05:58:00.145Z,90.88
2023-05-15T06:00:01.982Z,91.33
2023-05-15T06:02:04.935Z,92.08
2023-05-15T06:04:06.996Z,92.38
2023-05-15T06:06:09.201Z,92.72
2023-05-15T06:08:12.265Z,92.57
2023-05-15T06:10:14.278Z,92.61
2023-05-15T06:12:15.889Z,93.04
2023-05-15T06:14:18.196Z,92.55
2023-05-15T06:16:22.096Z,88.48
2023-05-15T06:18:24.085Z,88.09
2023-05-15T06:20:26.109Z,87.38
2023-05-15T06:22:28.095Z,88.52
2023-05-15T06:24:30.082Z,88.99
2023-05-15T06:26:31.886Z,90.08
2023-05-15T06:28:33.897Z,90.16
2023-05-15T06:30:35.698Z,90.17
2023-05-15T06:32:37.296Z,90.78
2023-05-15T06:34:38.949Z,91.41
2023-05-15T06:36:40.975Z,92.42
2023-05-15T06:38:43.315Z,92.86
2023-05-15T06:40:47.280Z,92.83
2023-05-15T06:42:49.197Z,93.57
2023-05-15T06:44:50.916Z,92.79
2023-05-15T06:46:52.585Z,92.98
2023-05-15T06:48:54.347Z,92.79
2023-05-15T06:50:56.236Z,92.70
2023-05-15T06:52:59.503Z,91.79
2023-05-15T06:55:01.423Z,91.10
2023-05-15T06:57:03.305Z,88.39
2023-05-15T06:59:05.135Z,88.46
2023-05-15T07:01:08.644Z,89.66
2023-05-15T07:03:10.320Z,91.03
2023-05-15T07:05:12.027Z,91.06
2023-05-15T07:07:13.941Z,91.67
2023-05-15T07:09:15.695Z,91.72
2023-05-15T07:11:17.434Z,91.07
2023-05-15T07:13:20.851Z,90.39
2023-05-15T07:15:23.550Z,90.54
2023-05-15T07:17:25.823Z,91.44
2023-05-15T07:19:27.531Z,91.87
2023-05-15T07:21:29.413Z,92.29
2023-05-15T07:23:31.259Z,91.98
2023-05-15T07:25:32.941Z,91.76
2023-05-15T07:27:35.316Z,90.90
2023-05-15T07:29:36.975Z,89.16
2023-05-15T07:31:40.443Z,87.58
2023-05-15T07:33:42.219Z,87.50
2023-05-15T07:35:43.856Z,87.76
2023-05-15T07:37:46.759Z,87.75
2023-05-15T07:39:48.945Z,87.77
2023-05-15T07:41:50.605Z,87.72
2023-05-15T07:43:52.244Z,87.61
2023-05-15T07:45:55.322Z,86.68
2023-05-15T07:47:58.872Z,86.81
2023-05-15T07:50:00.711Z,86.91
2023-05-15T07:52:02.635Z,85.96
2023-05-15T07:54:04.812Z,84.36
2023-05-15T07:56:06.643Z,85.03
2023-05-15T07:58:09.749Z,86.07
2023-05-15T08:00:14.138Z,85.72
2023-05-15T08:02:15.947Z,86.37
2023-05-15T08:04:17.733Z,86.19
2023-05-15T08:06:19.544Z,86.64
2023-05-15T08:08:21.107Z,86.73
2023-05-15T08:10:23.344Z,86.03
2023-05-15T08:12:26.669Z,85.01
2023-05-15T08:14:28.888Z,85.03
2023-05-15T08:16:30.974Z,83.96
2023-05-15T08:18:32.882Z,84.04
2023-05-15T08:20:34.840Z,82.16
2023-05-15T08:22:36.684Z,81.98
2023-05-15T08:24:39.164Z,82.05
2023-05-15T08:26:40.998Z,80.94
2023-05-15T08:28:42.602Z,80.96
2023-05-15T08:30:44.184Z,81.18
2023-05-15T08:32:46.791Z,80.48
2023-05-15T08:34:48.778Z,80.40
2023-05-15T08:36:50.884Z,80.40
2023-05-15T08:38:52.749Z,76.92
2023-05-15T08:40:58.776Z,77.34
2023-05-15T08:43:04.998Z,77.22
2023-05-15T08:45:07.856Z,74.65
2023-05-15T08:47:09.973Z,76.18
2023-05-15T08:49:18.646Z,76.07
2023-05-15T08:51:20.679Z,74.77
2023-05-15T08:53:22.911Z,74.94
2023-05-15T08:55:25.098Z,74.16
2023-05-15T08:57:28.292Z,73.23
2023-05-15T08:59:31.276Z,72.70
2023-05-15T09:01:34.349Z,73.40
2023-05-15T09:03:36.448Z,73.22
2023-05-15T09:05:40.045Z,74.10
2023-05-15T09:07:42.996Z,74.17
2023-05-15T09:09:45.636Z,74.07
2023-05-15T09:11:48.774Z,74.03
2023-05-15T09:13:50.764Z,72.63
2023-05-15T09:15:52.469Z,72.41
2023-05-15T09:17:55.437Z,73.06
2023-05-15T09:19:58.497Z,72.29
2023-05-15T09:22:24.418Z,73.69
2023-05-15T09:24:28.243Z,72.75
2023-05-15T09:26:29.906Z,73.85
2023-05-15T09:28:33.458Z,73.51
2023-05-15T09:30:38.517Z,73.26
2023-05-15T09:32:40.512Z,72.92
2023-05-15T09:34:44.129Z,73.54
2023-05-15T09:36:45.724Z,73.39
2023-05-15T09:38:49.012Z,74.33
2023-05-15T09:40:50.760Z,73.92
2023-05-15T09:42:52.892Z,73.13
2023-05-15T09:44:54.487Z,72.58
2023-05-15T09:46:56.238Z,73.18
2023-05-15T09:48:59.583Z,73.40
2023-05-15T09:51:02.524Z,73.34
2023-05-15T09:53:05.385Z,72.27
2023-05-15T09:55:08.214Z,73.02
2023-05-15T09:57:15.361Z,72.51
2023-05-15T09:59:20.093Z,71.27
2023-05-15T10:01:23.623Z,70.47
2023-05-15T10:03:25.134Z,71.48
2023-05-15T10:05:41.965Z,71.58
2023-05-15T10:07:44.831Z,70.95
2023-05-15T10:09:46.299Z,70.04
2023-05-15T10:11:53.198Z,70.17
2023-05-15T10:13:54.838Z,70.54
2023-05-15T10:15:58.454Z,70.66
2023-05-15T10:18:00.767Z,69.35
2023-05-15T10:20:02.783Z,67.65
2023-05-15T10:22:05.211Z,67.49
2023-05-15T10:24:08.054Z,67.76
2023-05-15T10:26:32.663Z,67.25
2023-05-15T10:28:36.164Z,67.51
2023-05-15T10:30:38.963Z,66.47
2023-05-15T10:32:42.168Z,66.70
2023-05-15T10:34:44.111Z,65.09
2023-05-15T10:36:46.454Z,64.98
2023-05-15T10:38:49.024Z,64.06
2023-05-15T10:40:57.600Z,64.42
2023-05-15T10:43:05.199Z,63.85
2023-05-15T10:45:08.773Z,60.15
2023-05-15T10:47:10.887Z,59.81
2023-05-15T10:49:12.563Z,59.71
2023-05-15T10:51:18.172Z,59.60
2023-05-15T10:53:20.810Z,59.28
2023-05-15T10:55:23.215Z,57.80
2023-05-15T10:57:24.850Z,56.33
2023-05-15T10:59:33.891Z,55.20
2023-05-15T11:01:40.061Z,53.90
2023-05-15T11:03:49.489Z,59.12
2023-05-15T11:06:15.748Z,54.45
2023-05-15T11:08:21.607Z,50.56
2023-05-15T11:10:36.617Z,50.99
2023-05-15T11:12:58.430Z,51.76
2023-05-15T11:14:59.910Z,51.96
2023-05-15T11:17:06.870Z,51.99
2023-05-15T11:19:23.761Z,53.23
2023-05-15T11:21:25.804Z,51.83
2023-05-15T11:23:27.308Z,52.27
2023-05-15T11:25:33.687Z,52.45
2023-05-15T11:27:40.157Z,46.95
2023-05-15T11:30:10.074Z,45.36
2023-05-15T11:32:33.147Z,45.00
2023-05-15T11:34:35.118Z,45.93
2023-05-15T11:36:43.648Z,46.52
2023-05-15T11:38:50.908Z,50.53
2023-05-15T11:40:58.418Z,46.61
2023-05-15T11:43:23.496Z,45.09
2023-05-15T11:45:25.185Z,45.12
2023-05-15T11:47:29.632Z,45.27
2023-05-15T11:49:31.249Z,46.75
2023-05-15T11:51:33.810Z,45.17
2023-05-15T11:53:35.816Z,43.76
2023-05-15T11:55:39.112Z,45.09
2023-05-15T11:57:40.567Z,42.52
2023-05-15T11:59:42.050Z,43.51
2023-05-15T12:01:47.665Z,44.39
2023-05-15T12:03:50.288Z,45.34
2023-05-15T12:05:58.362Z,47.53
2023-05-15T12:08:01.521Z,47.29
2023-05-15T12:10:03.431Z,45.34
2023-05-15T12:12:06.324Z,45.72
2023-05-15T12:14:12.644Z,46.61
2023-05-15T12:16:14.121Z,47.03
2023-05-15T12:18:15.647Z,47.16
2023-05-15T12:20:18.916Z,48.54
2023-05-15T12:22:21.944Z,47.46
2023-05-15T12:24:23.401Z,47.75
2023-05-15T12:26:26.179Z,50.35
2023-05-15T12:28:29.478Z,48.55
2023-05-15T12:30:32.305Z,49.93
2023-05-15T12:32:35.487Z,49.64
2023-05-15T12:34:37.154Z,50.14
2023-05-15T12:36:41.472Z,51.04
2023-05-15T12:38:43.023Z,52.58
2023-05-15T12:40:46.551Z,51.49
2023-05-15T12:42:56.259Z,52.69
2023-05-15T12:44:57.810Z,52.63
2023-05-15T12:46:59.330Z,51.69
2023-05-15T12:49:01.345Z,52.03
2023-05-15T12:51:07.638Z,52.98
2023-05-15T12:53:09.409Z,53.41
2023-05-15T12:55:16.623Z,54.80
2023-05-15T12:57:18.128Z,56.06
2023-05-15T12:59:19.653Z,55.01
2023-05-15T13:01:21.659Z,55.06
2023-05-15T13:03:25.129Z,54.90
2023-05-15T13:05:27.804Z,55.36
2023-05-15T13:07:30.017Z,56.13
2023-05-15T13:09:33.225Z,55.58
2023-05-15T13:11:34.681Z,56.74
2023-05-15T13:13:47.539Z,55.47
2023-05-15T13:15:49.102Z,56.28
2023-05-15T13:17:56.532Z,57.76
2023-05-15T13:19:58.090Z,57.10
2023-05-15T13:22:00.416Z,59.46
2023-05-15T13:24:02.259Z,57.41
2023-05-15T13:26:03.735Z,59.70
2023-05-15T13:28:06.560Z,58.13
2023-05-15T13:30:08.618Z,57.23
2023-05-15T13:32:10.089Z,58.93
2023-05-15T13:34:11.550Z,57.20
2023-05-15T13:36:13.446Z,55.81
2023-05-15T13:38:15.237Z,58.16
2023-05-15T13:40:16.723Z,57.23
2023-05-15T13:42:18.260Z,60.58
2023-05-15T13:44:19.777Z,57.52
2023-05-15T13:46:21.539Z,56.91
2023-05-15T13:48:23.179Z,56.75
2023-05-15T13:50:24.980Z,57.10
2023-05-15T13:52:27.146Z,58.25
2023-05-15T13:54:28.603Z,60.54
2023-05-15T13:56:30.186Z,60.52
2023-05-15T13:58:31.684Z,56.59
2023-05-15T14:00:33.218Z,55.21
2023-05-15T14:02:34.848Z,55.35
2023-05-15T14:04:37.038Z,56.17
2023-05-15T14:06:38.513Z,57.30
2023-05-15T14:08:39.998Z,57.52
2023-05-15T14:10:41.463Z,54.90
2023-05-15T14:12:43.534Z,53.34
2023-05-15T14:14:46.988Z,52.74
2023-05-15T14:16:48.545Z,50.96
2023-05-15T14:18:50.122Z,52.84
2023-05-15T14:20:52.448Z,54.24
2023-05-15T14:22:53.933Z,51.49
2023-05-15T14:24:55.491Z,50.45
2023-05-15T14:26:56.995Z,55.74
2023-05-15T14:28:58.818Z,51.04
2023-05-15T14:31:00.377Z,52.09
2023-05-15T14:33:01.881Z,52.29
2023-05-15T14:35:03.619Z,53.65
2023-05-15T14:37:05.217Z,55.06
2023-05-15T14:39:06.715Z,55.93
2023-05-15T14:41:08.200Z,53.62
2023-05-15T14:43:10.103Z,53.37
2023-05-15T14:45:11.741Z,53.10
2023-05-15T14:47:13.567Z,54.99
2023-05-15T14:49:15.048Z,54.47
2023-05-15T14:51:18.408Z,54.37
2023-05-15T14:53:21.303Z,55.14
2023-05-15T14:55:22.893Z,56.97
2023-05-15T14:57:24.470Z,58.61
2023-05-15T14:59:28.350Z,56.37
2023-05-15T15:01:29.895Z,55.81
2023-05-15T15:03:33.298Z,53.76
2023-05-15T15:05:35.575Z,55.08
2023-05-15T15:08:02.228Z,54.26
2023-05-15T15:10:04.106Z,55.07
2023-05-15T15:12:06.430Z,54.08
2023-05-15T15:14:07.912Z,52.37
2023-05-15T15:16:10.175Z,53.79
2023-05-15T15:18:11.756Z,60.58
2023-05-15T15:20:15.040Z,60.35
2023-05-15T15:22:16.545Z,59.22
2023-05-15T15:24:18.035Z,55.79
2023-05-15T15:26:19.676Z,53.77
2023-05-15T15:28:21.172Z,53.63
2023-05-15T15:30:22.751Z,55.83
2023-05-15T15:32:24.517Z,57.46
2023-05-15T15:34:26.834Z,56.39
2023-05-15T15:36:28.286Z,55.19
2023-05-15T15:38:29.747Z,59.69
2023-05-15T15:40:31.769Z,59.86
2023-05-15T15:42:34.142Z,60.08
2023-05-15T15:44:35.951Z,54.41
2023-05-15T15:46:38.530Z,56.37
2023-05-15T15:48:40.074Z,57.43
2023-05-15T15:50:41.565Z,58.13
2023-05-15T15:52:43.036Z,57.85
2023-05-15T15:54:47.139Z,58.25
2023-05-15T15:56:48.896Z,54.47
2023-05-15T15:58:50.476Z,53.44
2023-05-15T16:00:51.997Z,54.56
2023-05-15T16:02:53.586Z,51.68
2023-05-15T16:04:55.157Z,51.90
2023-05-15T16:06:56.746Z,52.32
2023-05-15T16:08:58.261Z,53.84
2023-05-15T16:10:59.818Z,54.72
2023-05-15T16:13:01.270Z,62.11
2023-05-15T16:15:20.932Z,59.85
2023-05-15T16:17:23.686Z,61.70
2023-05-15T16:19:25.315Z,62.02
2023-05-15T16:21:26.787Z,61.10
2023-05-15T16:23:28.249Z,60.21
2023-05-15T16:25:29.733Z,61.01
2023-05-15T16:27:31.316Z,60.91
2023-05-15T16:29:32.792Z,63.62
2023-05-15T16:31:34.879Z,64.32
2023-05-15T16:33:36.613Z,64.19
2023-05-15T16:35:38.364Z,65.15
2023-05-15T16:37:40.010Z,64.73
2023-05-15T16:39:41.512Z,65.08
2023-05-15T16:41:43.102Z,64.28
2023-05-15T16:43:44.611Z,64.30
2023-05-15T16:45:46.205Z,65.59
2023-05-15T16:47:47.813Z,65.24
2023-05-15T16:49:50.306Z,65.18
2023-05-15T16:51:52.856Z,65.16
2023-05-15T16:53:56.226Z,66.18
2023-05-15T16:55:57.730Z,66.62
2023-05-15T16:57:59.230Z,67.03
2023-05-15T17:00:00.756Z,66.83
2023-05-15T17:02:02.425Z,67.29
2023-05-15T17:04:04.153Z,67.39
2023-05-15T17:06:05.883Z,67.33
2023-05-15T17:08:07.655Z,67.65
2023-05-15T17:10:10.546Z,68.04
2023-05-15T17:12:12.104Z,68.15
2023-05-15T17:14:13.585Z,68.37
2023-05-15T17:16:15.142Z,68.56
2023-05-15T17:18:16.760Z,68.44
2023-05-15T17:20:18.419Z,66.08
2023-05-15T17:22:21.218Z,67.27
2023-05-15T17:24:22.679Z,67.91
2023-05-15T17:26:24.194Z,70.31
2023-05-15T17:28:25.638Z,70.81
2023-05-15T17:30:27.210Z,69.61
2023-05-15T17:32:28.917Z,70.78
2023-05-15T17:34:30.475Z,70.83
2023-05-15T17:36:32.297Z,70.98
2023-05-15T17:38:33.805Z,69.81
2023-05-15T17:40:35.335Z,69.47
2023-05-15T17:42:36.832Z,70.04
2023-05-15T17:44:38.308Z,70.15
2023-05-15T17:46:39.767Z,71.90
2023-05-15T17:48:41.225Z,74.15
2023-05-15T17:50:42.727Z,71.86
2023-05-15T17:52:44.295Z,71.85
2023-05-15T17:54:45.865Z,71.33
2023-05-15T17:56:48.044Z,73.12
2023-05-15T17:58:49.583Z,73.32
2023-05-15T18:00:51.686Z,74.75
2023-05-15T18:02:53.810Z,73.90
2023-05-15T18:04:56.172Z,75.84
2023-05-15T18:06:57.708Z,74.02
2023-05-15T18:08:59.222Z,75.27
2023-05-15T18:11:04.204Z,75.30
2023-05-15T18:13:13.111Z,75.98
2023-05-15T18:15:14.729Z,76.26
2023-05-15T18:17:16.382Z,75.50
2023-05-15T18:19:18.223Z,75.56
2023-05-15T18:21:20.006Z,75.05
2023-05-15T18:23:21.541Z,74.65
2023-05-15T18:25:23.225Z,74.37
2023-05-15T18:27:24.739Z,75.88
2023-05-15T18:29:26.489Z,75.17
2023-05-15T18:31:27.993Z,75.77
2023-05-15T18:33:29.561Z,76.52
2023-05-15T18:35:31.037Z,76.04
2023-05-15T18:37:34.023Z,75.98
2023-05-15T18:39:37.548Z,76.75
2023-05-15T18:41:39.003Z,76.60
2023-05-15T18:43:40.517Z,76.40
2023-05-15T18:45:42.001Z,77.12
2023-05-15T18:47:43.545Z,75.75
2023-05-15T18:49:45.519Z,75.29
2023-05-15T18:51:46.986Z,76.07
2023-05-15T18:53:48.413Z,78.31
2023-05-15T18:55:49.896Z,78.14
2023-05-15T18:57:51.730Z,78.05
2023-05-15T18:59:54.461Z,77.56
2023-05-15T19:01:56.044Z,77.76
2023-05-15T19:03:57.798Z,77.28
2023-05-15T19:05:59.370Z,77.29
2023-05-15T19:08:01.154Z,75.60
2023-05-15T19:10:03.629Z,75.53
2023-05-15T19:12:05.483Z,75.54
2023-05-15T19:14:06.977Z,76.51
2023-05-15T19:16:10.271Z,76.91
2023-05-15T19:18:11.822Z,76.71
2023-05-15T19:20:13.401Z,76.54
2023-05-15T19:22:14.971Z,77.07
2023-05-15T19:24:16.485Z,77.80
2023-05-15T19:26:18.097Z,77.98
2023-05-15T19:28:19.736Z,78.55
2023-05-15T19:30:21.399Z,78.59
2023-05-15T19:32:22.971Z,78.28
2023-05-15T19:34:24.638Z,78.68
2023-05-15T19:36:26.242Z,79.12
2023-05-15T19:38:28.006Z,79.40
2023-05-15T19:40:29.582Z,79.48
2023-05-15T19:42:31.108Z,79.74
2023-05-15T19:44:32.637Z,79.88
2023-05-15T19:46:34.739Z,80.29
2023-05-15T19:48:36.434Z,80.12
2023-05-15T19:50:39.585Z,79.57
2023-05-15T19:52:42.418Z,80.26
2023-05-15T19:54:45.555Z,80.35
2023-05-15T19:56:47.077Z,80.41
2023-05-15T19:58:48.598Z,80.15
2023-05-15T20:00:52.634Z,80.44
2023-05-15T20:02:54.226Z,80.62
2023-05-15T20:04:55.815Z,80.96
2023-05-15T20:06:57.304Z,80.86
2023-05-15T20:08:59.313Z,81.03
2023-05-15T20:11:01.228Z,81.42
2023-05-15T20:13:03.069Z,81.57
2023-05-15T20:15:05.102Z,81.70
2023-05-15T20:17:07.067Z,81.69
2023-05-15T20:19:11.014Z,81.72
2023-05-15T20:21:12.810Z,82.09
2023-05-15T20:23:14.281Z,82.28
2023-05-15T20:25:15.817Z,82.25
2023-05-15T20:27:17.254Z,82.48
2023-05-15T20:29:18.732Z,82.84
2023-05-15T20:31:20.341Z,82.99
2023-05-15T20:35:24.485Z,80.51
2023-05-15T20:37:30.296Z,80.69
2023-05-15T20:39:32.002Z,81.12
2023-05-15T20:41:34.145Z,80.98
2023-05-15T20:43:35.635Z,79.63
2023-05-15T20:45:37.214Z,79.77
2023-05-15T20:47:38.768Z,80.14
2023-05-15T20:49:40.367Z,80.71
2023-05-15T20:51:44.439Z,80.78
2023-05-15T20:53:45.889Z,80.30
2023-05-15T20:55:47.457Z,80.44
2023-05-15T20:57:50.292Z,79.83
2023-05-15T20:59:51.795Z,79.09
2023-05-15T21:01:53.321Z,78.96
2023-05-15T21:03:54.876Z,79.69
2023-05-15T21:05:57.480Z,79.59
2023-05-15T21:07:59.367Z,79.43
2023-05-15T21:10:00.915Z,78.01
2023-05-15T21:12:04.069Z,79.38
2023-05-15T21:14:06.397Z,80.10
2023-05-15T21:16:07.939Z,80.90
2023-05-15T21:18:09.536Z,81.55
2023-05-15T21:20:11.925Z,81.86
2023-05-15T21:22:13.651Z,81.99
2023-05-15T21:24:16.339Z,82.54
2023-05-15T21:26:17.839Z,82.67
2023-05-15T21:28:19.340Z,82.74
2023-05-15T21:30:21.073Z,82.85
2023-05-15T21:32:23.375Z,82.85
2023-05-15T21:34:25.232Z,83.14
2023-05-15T21:36:26.801Z,82.21
2023-05-15T21:38:29.410Z,81.89
2023-05-15T21:40:30.927Z,82.47
2023-05-15T21:42:32.519Z,82.94
2023-05-15T21:44:34.834Z,83.38
2023-05-15T21:46:36.377Z,83.43
2023-05-15T21:48:37.963Z,82.95
2023-05-15T21:50:39.994Z,83.52
2023-05-15T21:52:41.901Z,84.11
2023-05-15T21:54:44.457Z,84.35
2023-05-15T21:56:45.983Z,84.05
2023-05-15T21:58:47.781Z,83.65
2023-05-15T22:00:49.346Z,83.54
2023-05-15T22:02:50.957Z,82.59
2023-05-15T22:04:52.515Z,81.84
2023-05-15T22:06:54.128Z,79.70
2023-05-15T22:08:55.815Z,79.59
2023-05-15T22:10:57.295Z,80.05
2023-05-15T22:12:59.105Z,79.75
2023-05-15T22:15:01.162Z,79.76
2023-05-15T22:17:02.659Z,80.24
2023-05-15T22:19:04.251Z,80.32
2023-05-15T22:21:06.353Z,80.35
2023-05-15T22:23:07.901Z,81.00
2023-05-15T22:25:09.714Z,81.14
2023-05-15T22:27:11.235Z,80.96
2023-05-15T22:29:12.915Z,81.51
2023-05-15T22:31:14.426Z,81.52
2023-05-15T22:33:16.110Z,81.64
2023-05-15T22:35:18.613Z,81.63
2023-05-15T22:37:20.144Z,81.70
2023-05-15T22:39:21.722Z,82.03
2023-05-15T22:41:23.218Z,82.25
2023-05-15T22:43:24.914Z,82.70
2023-05-15T22:45:26.444Z,82.48
2023-05-15T22:47:31.003Z,82.73
2023-05-15T22:49:32.494Z,82.45
2023-05-15T22:51:34.406Z,82.90
2023-05-15T22:53:36.345Z,83.24
2023-05-15T22:55:37.827Z,83.25
2023-05-15T22:57:39.376Z,83.57
2023-05-15T22:59:40.978Z,83.70
2023-05-15T23:01:43.929Z,83.55
2023-05-15T23:03:46.267Z,83.75
2023-05-15T23:05:47.887Z,83.65
2023-05-15T23:07:49.348Z,83.89
2023-05-15T23:09:51.398Z,83.58
2023-05-15T23:11:52.875Z,83.41
2023-05-15T23:13:54.449Z,83.25
2023-05-15T23:15:56.005Z,82.13
2023-05-15T23:17:57.639Z,82.14
2023-05-15T23:19:59.159Z,82.13
2023-05-15T23:22:00.815Z,82.55
2023-05-15T23:24:02.365Z,82.24
2023-05-15T23:26:03.835Z,81.52
2023-05-15T23:28:05.369Z,81.22
2023-05-15T23:30:07.814Z,80.97
2023-05-15T23:32:09.352Z,81.14
2023-05-15T23:34:11.115Z,81.23
2023-05-15T23:36:12.586Z,81.39
2023-05-15T23:38:14.106Z,81.52
2023-05-15T23:40:15.802Z,82.29
2023-05-15T23:42:17.260Z,82.62
2023-05-15T23:44:18.908Z,83.57
2023-05-15T23:46:20.464Z,84.01
2023-05-15T23:48:21.990Z,84.81
2023-05-15T23:50:23.581Z,84.90
2023-05-15T23:52:25.185Z,85.65
2023-05-15T23:54:26.700Z,86.36
2023-05-15T23:56:28.263Z,86.33
2023-05-15T23:58:29.818Z,87.04
